sensor_id;sensor_type;location;lat;lon;timestamp;pressure;altitude;pressure_sealevel;temperature;humidity
9899;BME280;4988;49.238;6.698;2022-10-31T00:02:16;99617.19;;;10.75;100.00
9899;BME280;4988;49.238;6.698;2022-10-31T00:04:41;99607.31;;;10.77;100.00
9899;BME280;4988;49.238;6.698;2022-10-31T00:07:06;99605.56;;;10.76;100.00
9899;BME280;4988;49.238;6.698;2022-10-31T00:09:32;99604.41;;;10.84;100.00
9899;BME280;4988;49.238;6.698;2022-10-31T00:11:57;99604.81;;;10.73;100.00
9899;BME280;4988;49.238;6.698;2022-10-31T00:14:22;99602.06;;;10.76;100.00
9899;BME280;4988;49.238;6.698;2022-10-31T00:16:48;99597.53;;;10.78;100.00
9899;BME280;4988;49.238;6.698;2022-10-31T00:19:13;99598.72;;;10.71;100.00
9899;BME280;4988;49.238;6.698;2022-10-31T00:21:38;99597.06;;;10.67;100.00
9899;BME280;4988;49.238;6.698;2022-10-31T00:24:04;99604.13;;;10.68;100.00
9899;BME280;4988;49.238;6.698;2022-10-31T00:26:30;99594.53;;;10.64;100.00
9899;BME280;4988;49.238;6.698;2022-10-31T00:28:57;99596.22;;;10.66;100.00
9899;BME280;4988;49.238;6.698;2022-10-31T00:31:22;99596.16;;;10.68;100.00
9899;BME280;4988;49.238;6.698;2022-10-31T00:33:48;99602.59;;;10.62;100.00
9899;BME280;4988;49.238;6.698;2022-10-31T00:36:16;99592.75;;;10.64;100.00
9899;BME280;4988;49.238;6.698;2022-10-31T00:38:42;99595.41;;;10.64;100.00
9899;BME280;4988;49.238;6.698;2022-10-31T00:41:09;99601.63;;;10.65;100.00
9899;BME280;4988;49.238;6.698;2022-10-31T00:43:34;99597.75;;;10.50;100.00
9899;BME280;4988;49.238;6.698;2022-10-31T00:46:00;99602.03;;;10.28;100.00
9899;BME280;4988;49.238;6.698;2022-10-31T00:48:25;99603.78;;;10.06;100.00
9899;BME280;4988;49.238;6.698;2022-10-31T00:50:51;99609.06;;;9.82;100.00
9899;BME280;4988;49.238;6.698;2022-10-31T00:53:16;99607.53;;;9.75;100.00
9899;BME280;4988;49.238;6.698;2022-10-31T00:55:41;99608.00;;;9.86;100.00
9899;BME280;4988;49.238;6.698;2022-10-31T00:58:07;99598.03;;;9.93;100.00
9899;BME280;4988;49.238;6.698;2022-10-31T01:00:32;99602.25;;;9.98;100.00
9899;BME280;4988;49.238;6.698;2022-10-31T01:02:57;99611.72;;;9.82;100.00
9899;BME280;4988;49.238;6.698;2022-10-31T01:05:23;99605.56;;;9.80;100.00
9899;BME280;4988;49.238;6.698;2022-10-31T01:07:48;99597.28;;;9.89;100.00
9899;BME280;4988;49.238;6.698;2022-10-31T01:10:14;99595.47;;;9.90;100.00
9899;BME280;4988;49.238;6.698;2022-10-31T01:12:44;99599.88;;;9.91;100.00
9899;BME280;4988;49.238;6.698;2022-10-31T01:15:12;99591.06;;;9.89;100.00
9899;BME280;4988;49.238;6.698;2022-10-31T01:17:38;99597.16;;;9.92;100.00
9899;BME280;4988;49.238;6.698;2022-10-31T01:20:05;99603.47;;;9.64;100.00
9899;BME280;4988;49.238;6.698;2022-10-31T01:22:32;99603.66;;;9.58;100.00
9899;BME280;4988;49.238;6.698;2022-10-31T01:24:57;99601.81;;;9.60;100.00
9899;BME280;4988;49.238;6.698;2022-10-31T01:27:22;99598.16;;;9.64;100.00
9899;BME280;4988;49.238;6.698;2022-10-31T01:29:48;99599.78;;;9.69;100.00
9899;BME280;4988;49.238;6.698;2022-10-31T01:32:13;99591.66;;;9.73;100.00
9899;BME280;4988;49.238;6.698;2022-10-31T01:34:38;99601.00;;;9.58;100.00
9899;BME280;4988;49.238;6.698;2022-10-31T01:37:04;99601.84;;;9.33;100.00
9899;BME280;4988;49.238;6.698;2022-10-31T01:39:29;99593.31;;;9.24;100.00
9899;BME280;4988;49.238;6.698;2022-10-31T01:41:54;99587.75;;;9.31;100.00
9899;BME280;4988;49.238;6.698;2022-10-31T01:46:53;99588.34;;;9.40;100.00
9899;BME280;4988;49.238;6.698;2022-10-31T01:51:58;99585.13;;;9.30;100.00
9899;BME280;4988;49.238;6.698;2022-10-31T01:54:30;99588.53;;;9.35;100.00
9899;BME280;4988;49.238;6.698;2022-10-31T01:56:59;99588.56;;;9.33;100.00
9899;BME280;4988;49.238;6.698;2022-10-31T01:59:29;99590.28;;;9.34;100.00
9899;BME280;4988;49.238;6.698;2022-10-31T02:01:55;99586.56;;;9.40;100.00
9899;BME280;4988;49.238;6.698;2022-10-31T02:04:22;99580.94;;;9.49;100.00
9899;BME280;4988;49.238;6.698;2022-10-31T02:06:55;99579.91;;;9.54;100.00
9899;BME280;4988;49.238;6.698;2022-10-31T02:09:22;99577.75;;;9.65;100.00
9899;BME280;4988;49.238;6.698;2022-10-31T02:11:52;99575.63;;;9.75;100.00
9899;BME280;4988;49.238;6.698;2022-10-31T02:14:22;99565.69;;;9.80;100.00
9899;BME280;4988;49.238;6.698;2022-10-31T02:16:48;99555.06;;;9.80;100.00
9899;BME280;4988;49.238;6.698;2022-10-31T02:19:18;99558.53;;;9.82;100.00
9899;BME280;4988;49.238;6.698;2022-10-31T02:21:59;99559.47;;;9.81;100.00
9899;BME280;4988;49.238;6.698;2022-10-31T02:30:14;99559.03;;;9.43;100.00
9899;BME280;4988;49.238;6.698;2022-10-31T02:35:22;99556.72;;;9.32;100.00
9899;BME280;4988;49.238;6.698;2022-10-31T02:40:25;99554.75;;;9.12;100.00
9899;BME280;4988;49.238;6.698;2022-10-31T02:48:27;99555.38;;;8.93;100.00
9899;BME280;4988;49.238;6.698;2022-10-31T02:50:59;99546.44;;;8.96;100.00
9899;BME280;4988;49.238;6.698;2022-10-31T02:53:25;99548.06;;;9.00;100.00
9899;BME280;4988;49.238;6.698;2022-10-31T02:55:57;99554.00;;;9.08;100.00
9899;BME280;4988;49.238;6.698;2022-10-31T02:58:26;99545.88;;;9.13;100.00
9899;BME280;4988;49.238;6.698;2022-10-31T03:03:57;99552.00;;;9.15;100.00
9899;BME280;4988;49.238;6.698;2022-10-31T03:06:34;99552.91;;;9.14;100.00
9899;BME280;4988;49.238;6.698;2022-10-31T03:11:52;99544.28;;;9.07;100.00
9899;BME280;4988;49.238;6.698;2022-10-31T03:14:48;99550.16;;;9.17;100.00
9899;BME280;4988;49.238;6.698;2022-10-31T03:17:21;99553.59;;;9.21;100.00
9899;BME280;4988;49.238;6.698;2022-10-31T03:19:49;99551.53;;;9.29;100.00
9899;BME280;4988;49.238;6.698;2022-10-31T03:22:23;99543.16;;;9.41;100.00
9899;BME280;4988;49.238;6.698;2022-10-31T03:24:52;99539.94;;;9.57;100.00
9899;BME280;4988;49.238;6.698;2022-10-31T03:27:25;99534.56;;;9.58;100.00
9899;BME280;4988;49.238;6.698;2022-10-31T03:29:54;99541.44;;;9.64;100.00
9899;BME280;4988;49.238;6.698;2022-10-31T03:32:27;99534.94;;;9.73;100.00
9899;BME280;4988;49.238;6.698;2022-10-31T03:34:57;99534.25;;;9.68;100.00
9899;BME280;4988;49.238;6.698;2022-10-31T03:37:26;99535.06;;;9.70;100.00
9899;BME280;4988;49.238;6.698;2022-10-31T03:39:53;99542.00;;;9.74;100.00
9899;BME280;4988;49.238;6.698;2022-10-31T03:42:25;99544.56;;;9.77;100.00
9899;BME280;4988;49.238;6.698;2022-10-31T03:44:58;99540.94;;;9.78;100.00
9899;BME280;4988;49.238;6.698;2022-10-31T03:47:26;99540.50;;;9.90;100.00
9899;BME280;4988;49.238;6.698;2022-10-31T03:49:52;99534.38;;;9.88;100.00
9899;BME280;4988;49.238;6.698;2022-10-31T03:54:57;99533.69;;;9.83;100.00
9899;BME280;4988;49.238;6.698;2022-10-31T03:57:29;99532.97;;;9.78;100.00
9899;BME280;4988;49.238;6.698;2022-10-31T04:00:03;99539.09;;;9.80;100.00
9899;BME280;4988;49.238;6.698;2022-10-31T04:02:31;99537.91;;;9.89;100.00
9899;BME280;4988;49.238;6.698;2022-10-31T04:04:58;99532.50;;;9.90;100.00
9899;BME280;4988;49.238;6.698;2022-10-31T04:07:27;99530.59;;;9.94;100.00
9899;BME280;4988;49.238;6.698;2022-10-31T04:09:53;99533.25;;;9.95;100.00
9899;BME280;4988;49.238;6.698;2022-10-31T04:12:19;99538.66;;;9.92;100.00
9899;BME280;4988;49.238;6.698;2022-10-31T04:14:47;99533.56;;;9.86;100.00
9899;BME280;4988;49.238;6.698;2022-10-31T04:17:15;99528.00;;;9.92;100.00
9899;BME280;4988;49.238;6.698;2022-10-31T04:19:43;99533.34;;;9.92;100.00
9899;BME280;4988;49.238;6.698;2022-10-31T04:22:08;99529.75;;;9.93;100.00
9899;BME280;4988;49.238;6.698;2022-10-31T04:24:34;99532.66;;;9.87;100.00
9899;BME280;4988;49.238;6.698;2022-10-31T04:26:59;99534.44;;;9.87;100.00
9899;BME280;4988;49.238;6.698;2022-10-31T04:29:24;99526.78;;;9.77;100.00
9899;BME280;4988;49.238;6.698;2022-10-31T04:31:50;99524.13;;;9.77;100.00
9899;BME280;4988;49.238;6.698;2022-10-31T04:34:15;99528.59;;;9.77;100.00
9899;BME280;4988;49.238;6.698;2022-10-31T04:36:40;99523.22;;;9.78;100.00
9899;BME280;4988;49.238;6.698;2022-10-31T04:39:06;99519.88;;;9.73;100.00
9899;BME280;4988;49.238;6.698;2022-10-31T04:41:31;99510.16;;;9.72;100.00
9899;BME280;4988;49.238;6.698;2022-10-31T04:43:56;99513.81;;;9.68;100.00
9899;BME280;4988;49.238;6.698;2022-10-31T04:46:22;99509.25;;;9.72;100.00
9899;BME280;4988;49.238;6.698;2022-10-31T04:48:47;99504.00;;;9.70;100.00
9899;BME280;4988;49.238;6.698;2022-10-31T04:51:12;99503.19;;;9.68;100.00
9899;BME280;4988;49.238;6.698;2022-10-31T04:53:38;99510.31;;;9.68;100.00
9899;BME280;4988;49.238;6.698;2022-10-31T04:56:03;99511.06;;;9.71;100.00
9899;BME280;4988;49.238;6.698;2022-10-31T04:58:28;99508.19;;;9.77;100.00
9899;BME280;4988;49.238;6.698;2022-10-31T05:00:55;99503.16;;;9.70;100.00
9899;BME280;4988;49.238;6.698;2022-10-31T05:03:20;99507.88;;;9.61;100.00
9899;BME280;4988;49.238;6.698;2022-10-31T05:05:46;99504.91;;;9.45;100.00
9899;BME280;4988;49.238;6.698;2022-10-31T05:08:12;99511.03;;;9.22;100.00
9899;BME280;4988;49.238;6.698;2022-10-31T05:10:37;99503.41;;;9.11;100.00
9899;BME280;4988;49.238;6.698;2022-10-31T05:13:03;99506.59;;;8.96;100.00
9899;BME280;4988;49.238;6.698;2022-10-31T05:15:29;99505.41;;;8.78;100.00
9899;BME280;4988;49.238;6.698;2022-10-31T05:17:55;99515.63;;;8.63;100.00
9899;BME280;4988;49.238;6.698;2022-10-31T05:20:24;99511.13;;;8.65;100.00
9899;BME280;4988;49.238;6.698;2022-10-31T05:22:51;99503.16;;;8.65;100.00
9899;BME280;4988;49.238;6.698;2022-10-31T05:25:18;99501.16;;;8.74;100.00
9899;BME280;4988;49.238;6.698;2022-10-31T05:27:49;99501.16;;;8.74;100.00
9899;BME280;4988;49.238;6.698;2022-10-31T05:30:18;99496.44;;;8.82;100.00
9899;BME280;4988;49.238;6.698;2022-10-31T05:32:47;99491.81;;;8.89;100.00
9899;BME280;4988;49.238;6.698;2022-10-31T05:35:21;99492.44;;;8.95;100.00
9899;BME280;4988;49.238;6.698;2022-10-31T05:37:47;99486.94;;;9.01;100.00
9899;BME280;4988;49.238;6.698;2022-10-31T05:40:14;99480.50;;;9.09;100.00
9899;BME280;4988;49.238;6.698;2022-10-31T05:42:41;99484.88;;;9.10;100.00
9899;BME280;4988;49.238;6.698;2022-10-31T05:45:08;99486.63;;;9.11;100.00
9899;BME280;4988;49.238;6.698;2022-10-31T05:47:33;99484.78;;;9.13;100.00
9899;BME280;4988;49.238;6.698;2022-10-31T05:49:58;99487.47;;;9.11;100.00
9899;BME280;4988;49.238;6.698;2022-10-31T05:52:24;99477.53;;;9.18;100.00
9899;BME280;4988;49.238;6.698;2022-10-31T05:54:49;99469.22;;;9.27;100.00
9899;BME280;4988;49.238;6.698;2022-10-31T05:57:14;99472.28;;;9.16;100.00
9899;BME280;4988;49.238;6.698;2022-10-31T05:59:40;99474.25;;;9.10;100.00
9899;BME280;4988;49.238;6.698;2022-10-31T06:02:05;99471.59;;;9.10;100.00
9899;BME280;4988;49.238;6.698;2022-10-31T06:04:30;99473.41;;;9.09;100.00
9899;BME280;4988;49.238;6.698;2022-10-31T06:06:56;99473.22;;;9.14;100.00
9899;BME280;4988;49.238;6.698;2022-10-31T06:09:22;99477.97;;;9.04;100.00
9899;BME280;4988;49.238;6.698;2022-10-31T06:11:47;99478.38;;;8.93;100.00
9899;BME280;4988;49.238;6.698;2022-10-31T06:14:12;99473.06;;;8.93;100.00
9899;BME280;4988;49.238;6.698;2022-10-31T06:16:37;99464.97;;;8.96;100.00
9899;BME280;4988;49.238;6.698;2022-10-31T06:19:03;99464.63;;;9.07;100.00
9899;BME280;4988;49.238;6.698;2022-10-31T06:21:28;99460.16;;;9.08;100.00
9899;BME280;4988;49.238;6.698;2022-10-31T06:23:53;99466.63;;;9.00;100.00
9899;BME280;4988;49.238;6.698;2022-10-31T06:26:19;99466.63;;;9.00;100.00
9899;BME280;4988;49.238;6.698;2022-10-31T06:28:44;99449.66;;;9.05;100.00
9899;BME280;4988;49.238;6.698;2022-10-31T06:31:09;99460.16;;;9.08;100.00
9899;BME280;4988;49.238;6.698;2022-10-31T06:33:35;99448.91;;;9.01;100.00
9899;BME280;4988;49.238;6.698;2022-10-31T06:36:00;99455.94;;;9.02;100.00
9899;BME280;4988;49.238;6.698;2022-10-31T06:38:26;99456.88;;;9.01;100.00
9899;BME280;4988;49.238;6.698;2022-10-31T06:40:52;99464.78;;;9.02;100.00
9899;BME280;4988;49.238;6.698;2022-10-31T06:43:18;99467.53;;;8.99;100.00
9899;BME280;4988;49.238;6.698;2022-10-31T06:45:43;99472.25;;;8.91;100.00
9899;BME280;4988;49.238;6.698;2022-10-31T06:48:09;99474.81;;;8.67;100.00
9899;BME280;4988;49.238;6.698;2022-10-31T06:50:34;99477.19;;;8.48;100.00
9899;BME280;4988;49.238;6.698;2022-10-31T06:52:59;99470.16;;;8.46;100.00
9899;BME280;4988;49.238;6.698;2022-10-31T06:55:26;99475.22;;;8.53;100.00
9899;BME280;4988;49.238;6.698;2022-10-31T06:57:54;99484.13;;;8.52;100.00
9899;BME280;4988;49.238;6.698;2022-10-31T07:00:20;99474.19;;;8.59;100.00
9899;BME280;4988;49.238;6.698;2022-10-31T07:02:56;99479.19;;;8.68;100.00
9899;BME280;4988;49.238;6.698;2022-10-31T07:05:22;99487.75;;;8.77;100.00
9899;BME280;4988;49.238;6.698;2022-10-31T07:07:52;99482.44;;;8.77;100.00
9899;BME280;4988;49.238;6.698;2022-10-31T07:10:17;99487.88;;;8.74;100.00
9899;BME280;4988;49.238;6.698;2022-10-31T07:12:43;99488.72;;;8.74;100.00
9899;BME280;4988;49.238;6.698;2022-10-31T07:15:08;99489.63;;;8.75;100.00
9899;BME280;4988;49.238;6.698;2022-10-31T07:17:34;99497.38;;;8.81;100.00
9899;BME280;4988;49.238;6.698;2022-10-31T07:19:59;99499.00;;;8.85;100.00
9899;BME280;4988;49.238;6.698;2022-10-31T07:22:24;99492.22;;;8.76;100.00
9899;BME280;4988;49.238;6.698;2022-10-31T07:24:50;99495.78;;;8.75;100.00
9899;BME280;4988;49.238;6.698;2022-10-31T07:29:50;99499.91;;;8.84;100.00
9899;BME280;4988;49.238;6.698;2022-10-31T07:32:15;99505.94;;;8.89;100.00
9899;BME280;4988;49.238;6.698;2022-10-31T07:34:41;99499.50;;;8.96;100.00
9899;BME280;4988;49.238;6.698;2022-10-31T07:37:06;99502.56;;;9.11;100.00
9899;BME280;4988;49.238;6.698;2022-10-31T07:39:32;99502.22;;;9.20;100.00
9899;BME280;4988;49.238;6.698;2022-10-31T07:41:59;99499.19;;;9.31;100.00
9899;BME280;4988;49.238;6.698;2022-10-31T07:44:25;99499.88;;;9.38;100.00
9899;BME280;4988;49.238;6.698;2022-10-31T07:46:50;99503.16;;;9.44;100.00
9899;BME280;4988;49.238;6.698;2022-10-31T07:49:15;99503.31;;;9.40;100.00
9899;BME280;4988;49.238;6.698;2022-10-31T07:51:43;99493.44;;;9.43;100.00
9899;BME280;4988;49.238;6.698;2022-10-31T07:57:21;99494.44;;;9.66;100.00
9899;BME280;4988;49.238;6.698;2022-10-31T07:59:46;99498.63;;;9.72;100.00
9899;BME280;4988;49.238;6.698;2022-10-31T08:02:12;99491.16;;;9.83;100.00
9899;BME280;4988;49.238;6.698;2022-10-31T08:04:37;99489.28;;;9.85;100.00
9899;BME280;4988;49.238;6.698;2022-10-31T08:07:02;99497.94;;;9.90;100.00
9899;BME280;4988;49.238;6.698;2022-10-31T08:09:28;99491.59;;;9.94;100.00
9899;BME280;4988;49.238;6.698;2022-10-31T08:11:53;99493.38;;;9.94;100.00
9899;BME280;4988;49.238;6.698;2022-10-31T08:14:18;99483.25;;;10.04;100.00
9899;BME280;4988;49.238;6.698;2022-10-31T08:16:43;99479.63;;;10.06;100.00
9899;BME280;4988;49.238;6.698;2022-10-31T08:19:09;99479.34;;;10.14;100.00
9899;BME280;4988;49.238;6.698;2022-10-31T08:21:34;99481.78;;;10.19;100.00
9899;BME280;4988;49.238;6.698;2022-10-31T08:23:59;99488.00;;;10.19;100.00
9899;BME280;4988;49.238;6.698;2022-10-31T08:26:25;99480.69;;;10.24;100.00
9899;BME280;4988;49.238;6.698;2022-10-31T08:28:50;99476.06;;;10.29;100.00
9899;BME280;4988;49.238;6.698;2022-10-31T08:31:16;99476.72;;;10.35;100.00
9899;BME280;4988;49.238;6.698;2022-10-31T08:33:41;99464.03;;;10.43;100.00
9899;BME280;4988;49.238;6.698;2022-10-31T08:36:07;99463.78;;;10.49;100.00
9899;BME280;4988;49.238;6.698;2022-10-31T08:38:33;99464.41;;;10.56;100.00
9899;BME280;4988;49.238;6.698;2022-10-31T08:40:58;99465.94;;;10.61;100.00
9899;BME280;4988;49.238;6.698;2022-10-31T08:43:23;99459.59;;;10.66;100.00
9899;BME280;4988;49.238;6.698;2022-10-31T08:45:49;99462.91;;;10.71;100.00
9899;BME280;4988;49.238;6.698;2022-10-31T08:48:16;99459.19;;;10.75;100.00
9899;BME280;4988;49.238;6.698;2022-10-31T08:50:43;99457.59;;;10.71;100.00
9899;BME280;4988;49.238;6.698;2022-10-31T08:53:11;99460.09;;;10.74;100.00
9899;BME280;4988;49.238;6.698;2022-10-31T08:55:38;99453.75;;;10.78;100.00
9899;BME280;4988;49.238;6.698;2022-10-31T08:58:05;99454.34;;;10.85;100.00
9899;BME280;4988;49.238;6.698;2022-10-31T09:00:32;99445.41;;;10.86;100.00
9899;BME280;4988;49.238;6.698;2022-10-31T09:02:59;99450.00;;;10.82;100.00
9899;BME280;4988;49.238;6.698;2022-10-31T09:05:27;99450.94;;;10.81;100.00
9899;BME280;4988;49.238;6.698;2022-10-31T09:07:57;99445.69;;;10.80;100.00
9899;BME280;4988;49.238;6.698;2022-10-31T09:10:24;99448.69;;;10.92;100.00
9899;BME280;4988;49.238;6.698;2022-10-31T09:13:09;99442.97;;;11.02;100.00
9899;BME280;4988;49.238;6.698;2022-10-31T09:15:38;99437.44;;;11.06;100.00
9899;BME280;4988;49.238;6.698;2022-10-31T09:18:05;99445.94;;;11.15;100.00
9899;BME280;4988;49.238;6.698;2022-10-31T09:20:32;99442.06;;;11.23;100.00
9899;BME280;4988;49.238;6.698;2022-10-31T09:23:00;99435.28;;;11.35;100.00
9899;BME280;4988;49.238;6.698;2022-10-31T09:25:26;99438.56;;;11.42;100.00
9899;BME280;4988;49.238;6.698;2022-10-31T09:27:56;99430.00;;;11.54;100.00
9899;BME280;4988;49.238;6.698;2022-10-31T09:30:22;99425.03;;;11.66;100.00
9899;BME280;4988;49.238;6.698;2022-10-31T09:32:47;99420.88;;;11.79;100.00
9899;BME280;4988;49.238;6.698;2022-10-31T09:35:13;99420.31;;;11.91;100.00
9899;BME280;4988;49.238;6.698;2022-10-31T09:37:38;99413.31;;;12.08;100.00
9899;BME280;4988;49.238;6.698;2022-10-31T09:40:04;99402.97;;;12.19;100.00
9899;BME280;4988;49.238;6.698;2022-10-31T09:43:03;99407.88;;;12.29;100.00
9899;BME280;4988;49.238;6.698;2022-10-31T09:48:33;99411.50;;;12.45;100.00
9899;BME280;4988;49.238;6.698;2022-10-31T09:50:58;99411.00;;;12.56;100.00
9899;BME280;4988;49.238;6.698;2022-10-31T09:54:10;99407.78;;;12.67;100.00
9899;BME280;4988;49.238;6.698;2022-10-31T09:56:37;99407.16;;;12.79;100.00
9899;BME280;4988;49.238;6.698;2022-10-31T09:59:05;99399.00;;;12.82;100.00
9899;BME280;4988;49.238;6.698;2022-10-31T10:01:51;99389.56;;;12.93;100.00
9899;BME280;4988;49.238;6.698;2022-10-31T10:04:39;99404.75;;;12.92;100.00
9899;BME280;4988;49.238;6.698;2022-10-31T10:09:49;99396.94;;;13.05;100.00
9899;BME280;4988;49.238;6.698;2022-10-31T10:17:35;99393.16;;;13.27;100.00
9899;BME280;4988;49.238;6.698;2022-10-31T10:20:17;99405.16;;;13.35;100.00
9899;BME280;4988;49.238;6.698;2022-10-31T10:26:02;99403.16;;;13.57;100.00
9899;BME280;4988;49.238;6.698;2022-10-31T10:28:37;99399.13;;;13.65;100.00
9899;BME280;4988;49.238;6.698;2022-10-31T10:33:42;99402.50;;;13.85;100.00
9899;BME280;4988;49.238;6.698;2022-10-31T10:36:17;99405.09;;;13.87;100.00
9899;BME280;4988;49.238;6.698;2022-10-31T10:38:58;99402.06;;;13.93;100.00
9899;BME280;4988;49.238;6.698;2022-10-31T10:41:30;99401.56;;;14.02;100.00
9899;BME280;4988;49.238;6.698;2022-10-31T10:43:56;99393.19;;;14.08;100.00
9899;BME280;4988;49.238;6.698;2022-10-31T10:46:42;99385.59;;;14.17;100.00
9899;BME280;4988;49.238;6.698;2022-10-31T10:49:50;99373.50;;;14.25;100.00
9899;BME280;4988;49.238;6.698;2022-10-31T10:58:27;99380.38;;;14.45;100.00
9899;BME280;4988;49.238;6.698;2022-10-31T11:00:54;99389.09;;;14.49;100.00
9899;BME280;4988;49.238;6.698;2022-10-31T11:03:20;99385.34;;;14.52;100.00
9899;BME280;4988;49.238;6.698;2022-10-31T11:06:03;99382.50;;;14.55;99.34
9899;BME280;4988;49.238;6.698;2022-10-31T11:08:29;99384.16;;;14.57;99.27
9899;BME280;4988;49.238;6.698;2022-10-31T11:13:42;99363.41;;;14.61;99.45
9899;BME280;4988;49.238;6.698;2022-10-31T11:16:15;99354.31;;;14.63;99.39
9899;BME280;4988;49.238;6.698;2022-10-31T11:18:51;99339.91;;;14.66;99.70
9899;BME280;4988;49.238;6.698;2022-10-31T11:21:35;99334.53;;;14.66;99.56
9899;BME280;4988;49.238;6.698;2022-10-31T11:26:29;99325.19;;;14.73;99.56
9899;BME280;4988;49.238;6.698;2022-10-31T11:28:59;99333.13;;;14.75;99.73
9899;BME280;4988;49.238;6.698;2022-10-31T11:31:25;99339.06;;;14.80;99.48
9899;BME280;4988;49.238;6.698;2022-10-31T11:33:58;99347.78;;;14.84;99.75
9899;BME280;4988;49.238;6.698;2022-10-31T11:36:27;99340.53;;;14.86;100.00
9899;BME280;4988;49.238;6.698;2022-10-31T11:38:54;99343.56;;;14.94;99.52
9899;BME280;4988;49.238;6.698;2022-10-31T11:43:55;99328.84;;;15.01;99.82
9899;BME280;4988;49.238;6.698;2022-10-31T11:48:55;99312.28;;;15.09;99.24
9899;BME280;4988;49.238;6.698;2022-10-31T11:51:27;99318.25;;;15.14;98.45
9899;BME280;4988;49.238;6.698;2022-10-31T11:53:56;99307.50;;;15.14;98.58
9899;BME280;4988;49.238;6.698;2022-10-31T11:56:23;99296.69;;;15.16;98.33
9899;BME280;4988;49.238;6.698;2022-10-31T11:59:02;99302.81;;;15.18;97.80
9899;BME280;4988;49.238;6.698;2022-10-31T12:01:29;99297.25;;;15.21;97.69
9899;BME280;4988;49.238;6.698;2022-10-31T12:04:09;99298.97;;;15.22;98.02
9899;BME280;4988;49.238;6.698;2022-10-31T12:06:40;99292.28;;;15.29;97.84
9899;BME280;4988;49.238;6.698;2022-10-31T12:12:54;99265.59;;;15.55;97.43
9899;BME280;4988;49.238;6.698;2022-10-31T12:17:44;99261.31;;;15.80;96.40
9899;BME280;4988;49.238;6.698;2022-10-31T12:28:47;99244.38;;;16.19;93.99
9899;BME280;4988;49.238;6.698;2022-10-31T12:31:38;99238.91;;;16.21;93.16
9899;BME280;4988;49.238;6.698;2022-10-31T12:45:50;99188.31;;;16.40;94.43
9899;BME280;4988;49.238;6.698;2022-10-31T12:51:06;99165.44;;;16.48;94.02
9899;BME280;4988;49.238;6.698;2022-10-31T12:53:44;99159.63;;;16.54;94.55
9899;BME280;4988;49.238;6.698;2022-10-31T12:56:22;99151.44;;;16.55;94.56
9899;BME280;4988;49.238;6.698;2022-10-31T13:01:29;99177.88;;;16.75;92.92
9899;BME280;4988;49.238;6.698;2022-10-31T13:04:38;99173.16;;;16.78;92.84
9899;BME280;4988;49.238;6.698;2022-10-31T13:07:03;99180.25;;;16.79;92.96
9899;BME280;4988;49.238;6.698;2022-10-31T13:09:36;99172.19;;;16.79;94.04
9899;BME280;4988;49.238;6.698;2022-10-31T13:12:16;99156.06;;;16.79;94.22
9899;BME280;4988;49.238;6.698;2022-10-31T13:14:47;99157.44;;;16.85;93.60
9899;BME280;4988;49.238;6.698;2022-10-31T13:17:22;99168.19;;;16.85;92.55
9899;BME280;4988;49.238;6.698;2022-10-31T13:19:50;99160.22;;;16.83;92.81
9899;BME280;4988;49.238;6.698;2022-10-31T13:22:20;99154.84;;;16.83;93.27
9899;BME280;4988;49.238;6.698;2022-10-31T13:24:57;99144.97;;;16.84;93.69
9899;BME280;4988;49.238;6.698;2022-10-31T13:27:41;99139.59;;;16.84;93.52
9899;BME280;4988;49.238;6.698;2022-10-31T13:30:22;99116.88;;;16.88;93.23
9899;BME280;4988;49.238;6.698;2022-10-31T13:33:03;99103.03;;;16.94;92.35
9899;BME280;4988;49.238;6.698;2022-10-31T13:35:42;99099.59;;;16.92;92.17
9899;BME280;4988;49.238;6.698;2022-10-31T13:44:01;99096.13;;;16.90;92.32
9899;BME280;4988;49.238;6.698;2022-10-31T13:46:40;99092.28;;;16.94;92.34
9899;BME280;4988;49.238;6.698;2022-10-31T13:51:50;99098.91;;;17.01;92.90
9899;BME280;4988;49.238;6.698;2022-10-31T13:54:32;99087.19;;;17.02;92.99
9899;BME280;4988;49.238;6.698;2022-10-31T13:56:58;99062.16;;;17.13;93.27
9899;BME280;4988;49.238;6.698;2022-10-31T13:59:27;99072.94;;;17.13;92.36
9899;BME280;4988;49.238;6.698;2022-10-31T14:01:58;99112.19;;;17.16;92.83
9899;BME280;4988;49.238;6.698;2022-10-31T14:04:27;99148.16;;;17.15;93.09
9899;BME280;4988;49.238;6.698;2022-10-31T14:07:04;99111.13;;;17.18;92.78
9899;BME280;4988;49.238;6.698;2022-10-31T14:09:34;99094.75;;;17.22;93.02
9899;BME280;4988;49.238;6.698;2022-10-31T14:12:04;99090.00;;;17.25;92.67
9899;BME280;4988;49.238;6.698;2022-10-31T14:14:35;99074.81;;;17.24;91.84
9899;BME280;4988;49.238;6.698;2022-10-31T14:17:05;99074.47;;;17.29;91.48
9899;BME280;4988;49.238;6.698;2022-10-31T14:19:31;99065.81;;;17.36;91.63
9899;BME280;4988;49.238;6.698;2022-10-31T14:21:56;99053.41;;;17.47;91.11
9899;BME280;4988;49.238;6.698;2022-10-31T14:26:54;99053.56;;;17.57;90.27
9899;BME280;4988;49.238;6.698;2022-10-31T14:29:23;99050.13;;;17.55;89.91
9899;BME280;4988;49.238;6.698;2022-10-31T14:34:39;99050.72;;;17.47;90.95
9899;BME280;4988;49.238;6.698;2022-10-31T14:40:23;99046.06;;;17.49;91.28
9899;BME280;4988;49.238;6.698;2022-10-31T14:43:10;99054.13;;;17.49;91.61
9899;BME280;4988;49.238;6.698;2022-10-31T14:50:20;99028.09;;;17.49;91.74
9899;BME280;4988;49.238;6.698;2022-10-31T14:52:14;99051.34;;;17.50;91.90
9899;BME280;4988;49.238;6.698;2022-10-31T14:54:48;99042.72;;;17.45;92.71
9899;BME280;4988;49.238;6.698;2022-10-31T14:57:23;99023.19;;;17.43;93.19
9899;BME280;4988;49.238;6.698;2022-10-31T14:59:57;99034.78;;;17.44;93.32
9899;BME280;4988;49.238;6.698;2022-10-31T15:02:32;99035.25;;;17.38;93.93
9899;BME280;4988;49.238;6.698;2022-10-31T15:05:07;99037.44;;;17.32;94.42
9899;BME280;4988;49.238;6.698;2022-10-31T15:07:33;99049.19;;;17.31;94.60
9899;BME280;4988;49.238;6.698;2022-10-31T15:10:05;99057.97;;;17.22;96.08
9899;BME280;4988;49.238;6.698;2022-10-31T15:12:33;99044.72;;;17.19;96.29
9899;BME280;4988;49.238;6.698;2022-10-31T15:15:25;99041.19;;;17.18;95.69
9899;BME280;4988;49.238;6.698;2022-10-31T15:17:58;99049.72;;;17.12;96.12
9899;BME280;4988;49.238;6.698;2022-10-31T15:20:26;99037.44;;;17.08;96.45
9899;BME280;4988;49.238;6.698;2022-10-31T15:22:55;99035.84;;;17.06;97.37
9899;BME280;4988;49.238;6.698;2022-10-31T15:25:23;99024.59;;;17.00;97.83
9899;BME280;4988;49.238;6.698;2022-10-31T15:27:51;99036.56;;;16.96;97.99
9899;BME280;4988;49.238;6.698;2022-10-31T15:30:28;99038.63;;;16.93;98.72
9899;BME280;4988;49.238;6.698;2022-10-31T15:32:53;99028.16;;;16.88;98.77